Aérodrome :
LOGIN :

S'inscrire | Disclaimer

   EN    FR    IT 

 










Légende :    VFR   VFR Marginal   IFR   IFR Intensif   IFR Très Intensif
Visi : 
Plafond : 
>= 8 km
>= 3000ft
5 à 8 km
1000 à 3000 ft
1500m à 5 km
500 à 1000 ft
800 à 1500m
200 à 500 ft
< 800m
< 200 ft
Symboles :   Orages  Brouillard  Fortes neiges  Fortes précipitations  Vent > 20 kt
SIGMETs :   Divers  Orages  Givrage  Turbulence  Onde Orograph.  Cendres Volcan.







- Altitude de l'aérodrome : 302 ft
- Code IATA : MAH


LEMH - Menorca

DERNIER METAR :
  • 210700Z 04003KT 9999 FEW012 19/18 Q1021

METARs EXPIRÉS :
  • 210630Z 05004KT 9999 FEW012 SCT045 19/17 Q1021
  • 210600Z 04003KT 9999 FEW012 18/17 Q1021
  • 210530Z 03004KT 010V070 9999 FEW010 SCT015 18/18 Q1021
  • 210500Z 04004KT 9999 FEW010 SCT015 19/18 Q1021
  • 210430Z 03006KT 9999 FEW010 SCT015 19/18 Q1021

TAF TAF LEMH
Valide du 21 à 03h jusqu'au 22 à 03h UTC


210200Z 2103/2203 04006KT 9999 BKN015 TX25/2112Z TN17/2106Z
PROB30
TEMPO 2103/2106 3000 BR BKN005
BECMG 2110/2112 34006KT
Pas de NOTAMs connus pour ce terrain.
1 SIGMET publié pour la FIR Barcelona (LECB) :
 
Turbulence forte
LECB SIGMET 2 VALID 210600/211000 LEVA
LECB BARCELONA UIR SEV TURB FCST N OF LINE N4201 E00037 - N4103 E00433 FL270/320 MOV S 10KT NC=



MET'MAP, la Météo Aéronautique d'un coup d'oeil ! - Copyright ORBIFLY Décembre 2007 - Disclaimer

ORBIFLY MET'MAP TEAM :

Programmation & Développement : Alexandra Zaïnal
Conception & Développement : Baudouin d'Aumeries
Co-Programmation & Développement : Marc-Olivier Méhu
Soutien technique & logistique : Manuel Goepfert

Contact : metmap@orbifly.com




SOURCES & CREDITS :

   NOAA